Time;durP1;ratioP1;P1;durP2;ratioP2;P2;SDS_P1;SDS_P2;PMS_P1;PMS_P2;Temp;Humidity;BMP_temperature;BMP_pressure;BME280_temperature;BME280_humidity;BME280_pressure;Samples;Min_cycle;Max_cycle;Signal;HPM_P1;HPM_P2
2024/01/27 00:00:18;;;;;;;7.05;2.70;;;3.00;99.90;;;;;;4947515;28;20023;-76
2024/01/27 00:02:44;;;;;;;10.25;2.70;;;2.90;99.90;;;;;;4935701;29;20031;-76
2024/01/27 00:05:10;;;;;;;7.53;3.05;;;2.90;99.90;;;;;;4947154;29;20082;-76
2024/01/27 00:07:35;;;;;;;8.82;3.63;;;2.80;99.90;;;;;;4930487;29;20102;-78
2024/01/27 00:10:02;;;;;;;8.57;3.10;;;2.80;99.90;;;;;;4965045;28;20320;-77
2024/01/27 00:12:28;;;;;;;7.45;3.30;;;2.90;99.90;;;;;;4949565;28;20069;-76
2024/01/27 00:14:54;;;;;;;9.05;2.80;;;2.90;99.90;;;;;;4950352;28;20038;-76
2024/01/27 00:17:23;;;;;;;9.23;2.85;;;2.90;99.90;;;;;;4949844;28;20031;-79
2024/01/27 00:19:50;;;;;;;8.27;2.97;;;2.90;99.90;;;;;;4949467;28;20309;-77
2024/01/27 00:22:16;;;;;;;9.75;3.47;;;2.80;99.90;;;;;;4950564;28;20018;-77
2024/01/27 00:24:43;;;;;;;5.70;3.60;;;2.80;99.90;;;;;;4983005;28;20038;-77
2024/01/27 00:27:08;;;;;;;9.07;3.35;;;2.70;99.90;;;;;;4983697;28;20023;-77
2024/01/27 00:29:34;;;;;;;7.10;2.85;;;2.70;99.90;;;;;;4983056;28;20301;-77
2024/01/27 00:32:00;;;;;;;7.25;2.63;;;2.60;99.90;;;;;;4966250;28;20031;-77
2024/01/27 00:34:26;;;;;;;8.35;2.97;;;2.70;99.90;;;;;;4949858;28;20037;-77
2024/01/27 00:36:52;;;;;;;9.35;3.47;;;2.80;99.90;;;;;;4932665;28;20023;-77
2024/01/27 00:39:18;;;;;;;5.95;3.00;;;2.80;99.90;;;;;;4946834;29;20055;-77
2024/01/27 00:41:44;;;;;;;7.65;3.30;;;2.70;99.90;;;;;;4957899;28;20053;-77
2024/01/27 00:44:11;;;;;;;6.97;2.88;;;2.60;99.90;;;;;;4947131;29;20034;-77
2024/01/27 00:46:37;;;;;;;6.00;3.05;;;2.60;99.90;;;;;;4946349;29;20031;-77
2024/01/27 00:49:03;;;;;;;7.00;2.85;;;2.50;99.90;;;;;;4961929;29;20062;-77
2024/01/27 00:51:29;;;;;;;6.05;2.80;;;2.50;99.90;;;;;;4946897;29;20304;-76
2024/01/27 00:53:55;;;;;;;8.38;3.15;;;2.50;99.90;;;;;;4931391;29;20070;-78
2024/01/27 00:56:24;;;;;;;6.45;2.83;;;2.40;99.90;;;;;;4947165;29;20201;-77
2024/01/27 00:58:50;;;;;;;9.65;3.30;;;2.40;99.90;;;;;;4946816;28;20023;-78
2024/01/27 01:01:15;;;;;;;9.70;3.45;;;2.30;99.90;;;;;;4963165;28;20324;-77
2024/01/27 01:03:41;;;;;;;10.82;3.13;;;2.30;99.90;;;;;;4930609;29;20026;-76
2024/01/27 01:06:07;;;;;;;6.85;3.17;;;2.30;99.90;;;;;;4947092;29;20023;-76
2024/01/27 01:08:32;;;;;;;7.43;3.20;;;2.30;99.90;;;;;;4962437;28;20050;-75
2024/01/27 01:10:58;;;;;;;9.07;3.22;;;2.30;99.90;;;;;;4966150;28;20038;-77
2024/01/27 01:13:24;;;;;;;7.90;3.80;;;2.20;99.90;;;;;;4965530;28;20312;-77
2024/01/27 01:15:50;;;;;;;15.10;5.95;;;2.10;99.90;;;;;;4949255;28;20302;-77
2024/01/27 01:18:16;;;;;;;20.27;9.48;;;2.00;99.90;;;;;;4949459;28;20094;-77
2024/01/27 01:20:42;;;;;;;17.13;8.85;;;2.00;99.90;;;;;;4949628;28;20049;-77
2024/01/27 01:23:08;;;;;;;10.15;4.75;;;2.00;99.90;;;;;;4982959;28;20147;-76
2024/01/27 01:25:33;;;;;;;7.22;3.10;;;2.00;99.90;;;;;;4965510;28;20209;-77
2024/01/27 01:27:59;;;;;;;9.68;3.70;;;2.00;99.90;;;;;;4949966;28;20038;-77
2024/01/27 01:30:25;;;;;;;8.93;3.33;;;2.00;99.90;;;;;;4949461;28;20038;-77
2024/01/27 01:32:51;;;;;;;13.13;4.15;;;1.90;99.90;;;;;;4949233;28;20293;-77
2024/01/27 01:35:17;;;;;;;11.13;4.70;;;1.90;99.90;;;;;;4949658;28;20029;-77
2024/01/27 01:37:43;;;;;;;11.02;5.07;;;1.90;99.90;;;;;;4948747;28;20058;-77
2024/01/27 01:40:15;;;;;;;8.32;4.22;;;1.90;99.90;;;;;;4949414;28;20308;-77
2024/01/27 01:42:41;;;;;;;12.73;4.45;;;1.90;99.90;;;;;;4951478;28;20065;-77
2024/01/27 01:45:10;;;;;;;8.48;4.00;;;1.80;99.90;;;;;;4969143;28;20042;-77
2024/01/27 01:47:36;;;;;;;11.32;3.70;;;1.80;99.90;;;;;;4962000;29;20030;-77
2024/01/27 01:50:02;;;;;;;7.53;3.40;;;1.80;99.90;;;;;;4936617;28;20023;-76
2024/01/27 01:52:28;;;;;;;10.00;3.58;;;1.80;99.90;;;;;;4968207;28;20233;-77
2024/01/27 01:54:54;;;;;;;11.52;4.15;;;1.80;99.90;;;;;;4952999;28;20328;-76
2024/01/27 01:57:20;;;;;;;7.85;3.33;;;1.80;99.90;;;;;;4968903;28;20023;-76
2024/01/27 01:59:46;;;;;;;8.45;3.33;;;1.80;99.90;;;;;;4951885;28;20039;-77
2024/01/27 02:02:12;;;;;;;7.60;3.25;;;1.70;99.90;;;;;;4968989;28;20245;-76
2024/01/27 02:04:45;;;;;;;10.43;3.67;;;1.70;99.90;;;;;;4952239;28;20023;-76
2024/01/27 02:07:11;;;;;;;9.38;3.30;;;1.70;99.90;;;;;;4968646;28;20336;-76
2024/01/27 02:09:37;;;;;;;12.20;3.65;;;1.60;99.90;;;;;;4952416;28;20025;-77
2024/01/27 02:12:04;;;;;;;8.13;3.30;;;1.60;99.90;;;;;;4952831;28;20026;-76
2024/01/27 02:14:30;;;;;;;8.52;3.08;;;1.60;99.90;;;;;;4985141;28;20039;-76
2024/01/27 02:16:56;;;;;;;10.70;3.40;;;1.60;99.90;;;;;;4968498;28;20330;-78
2024/01/27 02:19:25;;;;;;;6.57;2.67;;;1.50;99.90;;;;;;4952257;28;20057;-77
2024/01/27 02:21:51;;;;;;;9.52;3.17;;;1.50;99.90;;;;;;4985206;28;20038;-77
2024/01/27 02:24:20;;;;;;;6.50;3.00;;;1.40;99.90;;;;;;4952410;28;20038;-77
2024/01/27 02:26:46;;;;;;;10.13;3.38;;;1.40;99.90;;;;;;4964465;29;20019;-77
2024/01/27 02:29:12;;;;;;;7.47;3.30;;;1.40;99.90;;;;;;4949001;29;20027;-78
2024/01/27 02:31:37;;;;;;;7.70;3.50;;;1.40;99.90;;;;;;4933064;29;20028;-78
2024/01/27 02:34:03;;;;;;;8.25;3.45;;;1.40;99.90;;;;;;4949058;29;20269;-78
2024/01/27 02:36:29;;;;;;;9.25;3.22;;;1.40;99.90;;;;;;4948805;29;20063;-77
2024/01/27 02:38:55;;;;;;;9.80;3.20;;;1.40;99.90;;;;;;4952202;29;20023;-77
2024/01/27 02:41:21;;;;;;;6.95;2.95;;;1.40;99.90;;;;;;4964863;29;20363;-78
2024/01/27 02:43:47;;;;;;;13.82;3.83;;;1.30;99.90;;;;;;4948497;29;20098;-76
2024/01/27 02:46:15;;;;;;;10.23;3.42;;;1.30;99.90;;;;;;4948860;29;20292;-78
2024/01/27 02:48:44;;;;;;;8.50;3.65;;;1.30;99.90;;;;;;4962287;28;20040;-77
2024/01/27 02:51:10;;;;;;;7.57;3.40;;;1.30;99.90;;;;;;4952154;28;20216;-77
2024/01/27 02:53:36;;;;;;;11.05;3.85;;;1.30;99.90;;;;;;4951611;28;20025;-77
2024/01/27 02:56:06;;;;;;;7.13;3.45;;;1.30;99.90;;;;;;4951677;28;20220;-76
2024/01/27 02:58:34;;;;;;;7.97;3.40;;;1.20;99.90;;;;;;4966961;28;20110;-78
2024/01/27 03:01:00;;;;;;;12.88;4.20;;;1.20;99.90;;;;;;4951886;28;20019;-77
2024/01/27 03:03:26;;;;;;;7.45;3.35;;;1.30;99.90;;;;;;4984919;28;20098;-76
2024/01/27 03:05:51;;;;;;;9.38;3.60;;;1.20;99.90;;;;;;4966190;28;20030;-77
2024/01/27 03:08:18;;;;;;;9.88;3.17;;;1.30;99.90;;;;;;4951923;28;20026;-77
2024/01/27 03:10:44;;;;;;;11.32;3.63;;;1.20;99.90;;;;;;4984605;28;20338;-77
2024/01/27 03:13:10;;;;;;;6.32;2.95;;;1.20;99.90;;;;;;4951661;28;20030;-78
2024/01/27 03:15:37;;;;;;;8.65;3.30;;;1.20;99.90;;;;;;4951042;28;20035;-77
2024/01/27 03:18:04;;;;;;;8.63;3.05;;;1.20;99.90;;;;;;4951523;28;20039;-77
2024/01/27 03:20:31;;;;;;;10.32;3.38;;;1.20;99.90;;;;;;4951055;28;20023;-77
2024/01/27 03:22:57;;;;;;;7.63;3.63;;;1.10;99.90;;;;;;4947679;29;20090;-77
2024/01/27 03:25:25;;;;;;;8.55;3.20;;;1.10;99.90;;;;;;4960706;28;20030;-77
2024/01/27 03:27:52;;;;;;;8.20;3.10;;;1.10;99.90;;;;;;4950831;28;20027;-77
2024/01/27 03:30:18;;;;;;;6.28;2.95;;;1.20;99.90;;;;;;4951283;28;20073;-77
2024/01/27 03:32:44;;;;;;;8.40;3.00;;;1.10;99.90;;;;;;4950724;28;20022;-77
2024/01/27 03:35:10;;;;;;;9.20;2.70;;;1.10;99.90;;;;;;4951200;28;20026;-77
2024/01/27 03:37:39;;;;;;;5.97;2.50;;;1.00;99.90;;;;;;4950884;28;20027;-78
2024/01/27 03:40:06;;;;;;;8.88;2.95;;;1.00;99.90;;;;;;4950548;28;20022;-78
2024/01/27 03:42:32;;;;;;;10.25;2.75;;;1.00;99.90;;;;;;4950025;28;20072;-79
2024/01/27 03:44:58;;;;;;;8.52;3.47;;;1.00;99.90;;;;;;4951334;28;20019;-77
2024/01/27 03:47:24;;;;;;;8.27;2.90;;;1.00;99.90;;;;;;4983981;28;20033;-78
2024/01/27 03:49:50;;;;;;;7.22;2.95;;;1.00;99.90;;;;;;4966313;28;20069;-77
2024/01/27 03:52:16;;;;;;;7.38;3.05;;;1.00;99.90;;;;;;4966966;28;20427;-77
2024/01/27 03:54:43;;;;;;;12.07;3.53;;;1.00;99.90;;;;;;4966360;28;20029;-78
2024/01/27 03:57:09;;;;;;;9.38;3.38;;;1.10;99.90;;;;;;4966526;28;20022;-77
2024/01/27 03:59:35;;;;;;;10.50;3.10;;;1.10;99.90;;;;;;4949673;28;20033;-78
2024/01/27 04:02:02;;;;;;;10.48;3.45;;;1.10;99.90;;;;;;4950452;28;20190;-78
2024/01/27 04:04:28;;;;;;;9.35;3.38;;;1.10;99.90;;;;;;4949594;28;20077;-78
2024/01/27 04:06:53;;;;;;;7.88;3.42;;;1.20;99.90;;;;;;4983663;28;20031;-78
2024/01/27 04:09:19;;;;;;;7.38;3.25;;;1.20;99.90;;;;;;4983615;28;20026;-77
2024/01/27 04:11:45;;;;;;;9.07;3.63;;;1.20;99.90;;;;;;4983110;28;20150;-77
2024/01/27 04:14:11;;;;;;;8.70;3.40;;;1.10;99.90;;;;;;4966245;28;20050;-78
2024/01/27 04:16:36;;;;;;;10.48;3.50;;;1.00;99.90;;;;;;4961958;29;20343;-78
2024/01/27 04:19:02;;;;;;;8.60;2.92;;;1.00;99.90;;;;;;4980725;28;20039;-77
2024/01/27 04:21:28;;;;;;;9.05;3.17;;;1.00;99.90;;;;;;4950159;28;20022;-78
2024/01/27 04:23:53;;;;;;;9.48;3.13;;;0.90;99.90;;;;;;4967580;28;20228;-77
2024/01/27 04:26:19;;;;;;;10.40;3.40;;;0.90;99.90;;;;;;4985715;28;20022;-76
2024/01/27 04:28:45;;;;;;;9.20;3.75;;;0.90;99.90;;;;;;4968551;28;20147;-78
2024/01/27 04:31:10;;;;;;;12.30;3.83;;;0.80;99.90;;;;;;4966716;28;20022;-77
2024/01/27 04:33:36;;;;;;;9.77;3.78;;;0.80;99.90;;;;;;4961645;29;20202;-77
2024/01/27 04:36:02;;;;;;;8.15;3.67;;;0.70;99.90;;;;;;4965103;28;20046;-78
2024/01/27 04:38:31;;;;;;;7.70;3.72;;;0.70;99.90;;;;;;4983053;28;20053;-78
2024/01/27 04:40:56;;;;;;;10.82;4.20;;;0.70;99.90;;;;;;4966267;28;20038;-77
2024/01/27 04:43:22;;;;;;;10.55;4.18;;;0.70;99.90;;;;;;4983390;28;20022;-77
2024/01/27 04:45:51;;;;;;;11.95;4.40;;;0.70;99.90;;;;;;4965932;28;20023;-78
2024/01/27 04:48:17;;;;;;;14.80;5.10;;;0.70;99.90;;;;;;4965895;28;20027;-78
2024/01/27 04:50:43;;;;;;;18.08;4.90;;;0.70;99.90;;;;;;4983046;28;20313;-77
2024/01/27 04:53:09;;;;;;;14.05;4.85;;;0.70;99.90;;;;;;4946473;29;20020;-76
2024/01/27 04:55:35;;;;;;;16.08;5.28;;;0.60;99.90;;;;;;4949698;28;20050;-78
2024/01/27 04:58:01;;;;;;;10.93;4.50;;;0.60;99.90;;;;;;4950670;28;20027;-77
2024/01/27 05:00:28;;;;;;;16.65;4.80;;;0.60;99.90;;;;;;4950531;28;20062;-79
2024/01/27 05:02:54;;;;;;;16.83;4.85;;;0.60;99.90;;;;;;4950100;28;20023;-77
2024/01/27 05:05:20;;;;;;;11.50;4.60;;;0.60;99.90;;;;;;4983368;28;20257;-78
2024/01/27 05:07:46;;;;;;;16.10;5.10;;;0.60;99.90;;;;;;4965435;28;20054;-77
2024/01/27 05:10:12;;;;;;;14.05;5.45;;;0.60;99.90;;;;;;4965246;28;20129;-77
2024/01/27 05:12:38;;;;;;;11.90;4.40;;;0.60;99.90;;;;;;4949537;28;20054;-77
2024/01/27 05:15:04;;;;;;;12.73;5.07;;;0.60;99.90;;;;;;4949251;28;20049;-78
2024/01/27 05:17:30;;;;;;;14.75;5.28;;;0.50;99.90;;;;;;4985336;28;20031;-78
2024/01/27 05:19:58;;;;;;;14.32;5.43;;;0.50;99.90;;;;;;4953889;28;20086;-78
2024/01/27 05:22:23;;;;;;;13.30;4.47;;;0.50;99.90;;;;;;4953029;28;20074;-77
2024/01/27 05:24:49;;;;;;;16.23;4.90;;;0.50;99.90;;;;;;4952958;28;20105;-78
2024/01/27 05:27:15;;;;;;;11.05;4.57;;;0.50;99.90;;;;;;4969270;28;20108;-78
2024/01/27 05:29:41;;;;;;;15.73;5.13;;;0.50;99.90;;;;;;4986163;28;20030;-78
2024/01/27 05:32:07;;;;;;;12.57;5.60;;;0.50;99.90;;;;;;4953503;28;20058;-77
2024/01/27 05:34:32;;;;;;;13.93;5.63;;;0.50;99.90;;;;;;4952665;28;20026;-76
2024/01/27 05:36:58;;;;;;;14.82;5.20;;;0.40;99.90;;;;;;4969680;28;20228;-76
2024/01/27 05:39:24;;;;;;;13.63;5.40;;;0.40;99.90;;;;;;4967451;28;20037;-77
2024/01/27 05:41:50;;;;;;;13.07;4.97;;;0.40;99.90;;;;;;4985753;28;20359;-76
2024/01/27 05:44:15;;;;;;;11.73;5.53;;;0.40;99.90;;;;;;4953366;28;20034;-77
2024/01/27 05:46:41;;;;;;;13.38;6.15;;;0.40;99.90;;;;;;4968663;28;20333;-78
2024/01/27 05:49:07;;;;;;;17.73;5.95;;;0.40;99.90;;;;;;4949463;29;20027;-78
2024/01/27 05:51:33;;;;;;;9.40;4.82;;;0.40;99.90;;;;;;4949378;29;20023;-78
2024/01/27 05:53:59;;;;;;;10.57;5.22;;;0.40;99.90;;;;;;4949883;29;20027;-77
2024/01/27 05:56:25;;;;;;;9.85;4.97;;;0.40;99.90;;;;;;4966861;29;20245;-78
2024/01/27 05:58:51;;;;;;;11.18;4.47;;;0.40;99.90;;;;;;4948678;29;20042;-77
2024/01/27 06:01:20;;;;;;;13.50;5.05;;;0.30;99.90;;;;;;4960830;28;20097;-78
2024/01/27 06:03:46;;;;;;;8.35;4.45;;;0.30;99.90;;;;;;4971885;28;20019;-77
2024/01/27 06:06:12;;;;;;;12.30;4.85;;;0.20;99.90;;;;;;4953152;28;20240;-76
2024/01/27 06:08:38;;;;;;;8.77;4.43;;;0.20;99.90;;;;;;4968064;28;20043;-78
2024/01/27 06:11:04;;;;;;;10.40;4.45;;;0.30;99.90;;;;;;4968756;28;20019;-78
2024/01/27 06:13:30;;;;;;;10.75;5.00;;;0.20;99.90;;;;;;4968204;28;20212;-76
2024/01/27 06:15:55;;;;;;;13.43;4.55;;;0.20;99.90;;;;;;4985494;28;20356;-78
2024/01/27 06:18:21;;;;;;;12.13;4.82;;;0.20;99.90;;;;;;4952575;28;20288;-79
2024/01/27 06:20:47;;;;;;;14.82;4.40;;;0.20;99.90;;;;;;4985062;28;20134;-75
2024/01/27 06:23:13;;;;;;;10.65;4.32;;;0.10;99.90;;;;;;4968510;28;20097;-77
2024/01/27 06:25:40;;;;;;;9.77;4.25;;;0.10;99.90;;;;;;4967914;28;20045;-78
2024/01/27 06:28:08;;;;;;;11.43;4.65;;;0.10;99.90;;;;;;4985171;28;20101;-77
2024/01/27 06:30:34;;;;;;;12.88;5.32;;;0.10;99.90;;;;;;4967805;28;20122;-76
2024/01/27 06:33:00;;;;;;;10.40;4.90;;;0.10;99.90;;;;;;4985653;28;20027;-77
2024/01/27 06:35:25;;;;;;;11.15;5.45;;;0.00;99.90;;;;;;4964195;29;20316;-77
2024/01/27 06:37:51;;;;;;;17.58;5.03;;;0.00;99.90;;;;;;4983902;28;20035;-78
2024/01/27 06:40:17;;;;;;;11.40;5.18;;;0.10;99.90;;;;;;4968178;28;20085;-77
2024/01/27 06:42:42;;;;;;;16.13;5.35;;;0.00;99.90;;;;;;4984630;28;20122;-77
2024/01/27 06:45:08;;;;;;;10.40;5.15;;;0.00;99.90;;;;;;4968324;28;20208;-78
2024/01/27 06:47:34;;;;;;;15.38;5.75;;;0.00;99.90;;;;;;4967761;28;20472;-76
2024/01/27 06:49:59;;;;;;;13.27;5.88;;;0.10;99.90;;;;;;4968069;28;20145;-77
2024/01/27 06:52:25;;;;;;;10.30;5.80;;;0.00;99.90;;;;;;4985371;28;20030;-76
2024/01/27 06:54:51;;;;;;;13.30;5.32;;;0.00;99.90;;;;;;4947806;29;20023;-77
2024/01/27 06:57:24;;;;;;;13.77;5.55;;;0.00;99.90;;;;;;4983496;28;20034;-75
2024/01/27 06:59:55;;;;;;;10.38;4.88;;;0.00;99.90;;;;;;4984482;28;20301;-77
2024/01/27 07:02:26;;;;;;;11.90;5.40;;;-0.10;99.90;;;;;;4952005;28;20022;-75
2024/01/27 07:04:52;;;;;;;13.30;5.88;;;0.00;99.90;;;;;;4967024;28;20051;-75
2024/01/27 07:07:20;;;;;;;13.60;5.55;;;0.10;99.90;;;;;;4984687;28;20262;-76
2024/01/27 07:09:46;;;;;;;13.20;5.70;;;0.10;99.90;;;;;;4967124;28;20150;-77
2024/01/27 07:12:12;;;;;;;12.88;5.85;;;0.10;99.90;;;;;;4984443;28;20034;-77
2024/01/27 07:14:37;;;;;;;13.48;6.32;;;0.10;99.90;;;;;;4966775;28;20035;-76
2024/01/27 07:17:04;;;;;;;16.02;5.82;;;0.10;99.90;;;;;;4967639;28;20050;-76
2024/01/27 07:19:30;;;;;;;19.27;6.63;;;0.10;99.90;;;;;;4966787;28;20316;-76
2024/01/27 07:21:56;;;;;;;16.10;6.00;;;0.20;99.90;;;;;;4950948;28;20030;-78
2024/01/27 07:24:21;;;;;;;14.55;6.13;;;0.20;99.90;;;;;;4967034;28;20085;-77
2024/01/27 07:26:47;;;;;;;14.82;6.57;;;0.20;99.90;;;;;;4984186;28;20267;-77
2024/01/27 07:29:12;;;;;;;16.65;6.85;;;0.30;99.90;;;;;;4984333;28;20054;-77
2024/01/27 07:31:41;;;;;;;15.40;6.22;;;0.30;99.90;;;;;;4983568;28;20050;-76
2024/01/27 07:34:07;;;;;;;13.38;5.47;;;0.40;99.90;;;;;;4966872;28;20031;-77
2024/01/27 07:36:33;;;;;;;14.40;6.00;;;0.40;99.90;;;;;;4983645;28;20026;-76
2024/01/27 07:38:59;;;;;;;18.98;5.80;;;0.50;99.90;;;;;;4949810;28;20077;-76
2024/01/27 07:41:25;;;;;;;14.05;5.00;;;0.50;99.90;;;;;;4950942;28;20066;-78
2024/01/27 07:43:54;;;;;;;12.40;5.80;;;0.60;99.90;;;;;;4983636;28;20252;-78
2024/01/27 07:46:22;;;;;;;15.43;5.40;;;0.60;99.90;;;;;;4967036;28;20019;-77
2024/01/27 07:48:49;;;;;;;8.23;4.43;;;0.70;99.90;;;;;;4966077;28;20046;-77
2024/01/27 07:51:15;;;;;;;13.98;5.45;;;0.80;99.90;;;;;;4984105;28;20034;-78
2024/01/27 07:53:50;;;;;;;11.10;5.32;;;0.90;99.90;;;;;;4983399;28;20324;-77
2024/01/27 07:56:16;;;;;;;13.82;6.32;;;1.00;99.90;;;;;;4984253;28;20035;-79
2024/01/27 07:58:41;;;;;;;17.05;5.65;;;1.00;99.90;;;;;;4949576;28;20046;-77
2024/01/27 08:01:07;;;;;;;16.25;6.18;;;1.00;99.90;;;;;;4966615;28;20038;-77
2024/01/27 08:03:33;;;;;;;11.07;5.85;;;1.10;99.90;;;;;;4965779;28;20304;-76
2024/01/27 08:05:59;;;;;;;13.18;6.25;;;1.20;99.90;;;;;;4984027;28;20043;-78
2024/01/27 08:08:24;;;;;;;17.17;6.15;;;1.20;99.90;;;;;;4966704;28;20101;-77
2024/01/27 08:10:50;;;;;;;19.92;6.55;;;1.30;99.90;;;;;;4983183;28;20019;-77
2024/01/27 08:13:16;;;;;;;16.15;6.10;;;1.40;99.90;;;;;;4966601;28;20034;-76
2024/01/27 08:15:41;;;;;;;13.82;5.25;;;1.40;99.90;;;;;;4982589;28;20125;-77
2024/01/27 08:18:07;;;;;;;10.70;4.65;;;1.40;99.90;;;;;;4983432;28;20034;-77
2024/01/27 08:20:33;;;;;;;9.88;4.70;;;1.50;99.90;;;;;;4966061;28;20039;-77
2024/01/27 08:22:58;;;;;;;12.82;5.38;;;1.60;99.90;;;;;;4965709;28;20023;-77
2024/01/27 08:25:24;;;;;;;12.27;5.45;;;1.70;99.90;;;;;;4975193;28;20261;-77
2024/01/27 08:27:55;;;;;;;10.88;5.22;;;1.80;99.90;;;;;;4985335;28;20022;-80
2024/01/27 08:30:21;;;;;;;13.35;5.50;;;1.80;99.90;;;;;;4967220;28;20034;-78
2024/01/27 08:32:50;;;;;;;11.48;5.05;;;1.90;99.90;;;;;;4965842;28;20259;-80
2024/01/27 08:35:15;;;;;;;12.13;4.68;;;1.90;99.90;;;;;;4983647;28;20042;-76
2024/01/27 08:37:41;;;;;;;10.20;5.15;;;1.90;99.90;;;;;;4965450;28;20039;-76
2024/01/27 08:40:07;;;;;;;10.57;5.40;;;2.00;99.90;;;;;;4983428;28;20039;-76
2024/01/27 08:42:33;;;;;;;9.25;5.70;;;2.00;99.90;;;;;;4981725;28;20034;-78
2024/01/27 08:45:02;;;;;;;11.88;5.18;;;2.10;99.90;;;;;;4983298;28;20212;-81
2024/01/27 08:47:28;;;;;;;9.98;5.47;;;2.10;99.90;;;;;;4949527;28;20022;-78
2024/01/27 08:49:54;;;;;;;9.50;5.00;;;2.10;99.90;;;;;;4966653;28;20141;-78
2024/01/27 08:52:20;;;;;;;9.70;5.97;;;2.20;99.90;;;;;;4987028;28;20041;-77
2024/01/27 08:54:46;;;;;;;9.20;5.05;;;2.20;99.90;;;;;;4954115;28;20053;-77
2024/01/27 08:57:12;;;;;;;9.65;5.38;;;2.30;99.90;;;;;;4954110;28;20038;-77
2024/01/27 08:59:38;;;;;;;10.52;5.40;;;2.30;99.90;;;;;;4985846;28;20229;-76
2024/01/27 09:02:03;;;;;;;9.75;5.72;;;2.40;99.90;;;;;;4987001;28;20018;-75
2024/01/27 09:04:29;;;;;;;11.68;5.00;;;2.40;99.90;;;;;;4986535;28;20220;-76
2024/01/27 09:06:55;;;;;;;9.40;5.47;;;2.50;99.90;;;;;;4969656;28;20042;-77
2024/01/27 09:09:29;;;;;;;9.18;5.65;;;2.60;99.90;;;;;;4986877;28;20316;-80
2024/01/27 09:11:55;;;;;;;10.20;5.95;;;2.70;99.90;;;;;;4967951;28;20110;-78
2024/01/27 09:14:21;;;;;;;10.02;5.82;;;2.80;99.90;;;;;;4973415;28;20051;-76
2024/01/27 09:16:47;;;;;;;8.82;5.30;;;2.80;99.90;;;;;;5275891;23;20412;-72
2024/01/27 09:19:12;;;;;;;10.88;6.20;;;2.90;99.90;;;;;;4910053;29;20083;-73
2024/01/27 09:21:38;;;;;;;9.30;5.50;;;3.00;99.90;;;;;;4908596;29;20039;-74
2024/01/27 09:24:04;;;;;;;15.43;6.10;;;3.10;99.90;;;;;;4910879;29;20023;-76
2024/01/27 09:26:30;;;;;;;9.60;5.60;;;3.20;99.90;;;;;;4917922;29;20028;-74
2024/01/27 09:28:55;;;;;;;11.75;5.70;;;3.30;99.90;;;;;;4924654;29;20377;-73
2024/01/27 09:31:25;;;;;;;10.68;5.80;;;3.40;99.90;;;;;;4909430;29;20101;-78
2024/01/27 09:33:52;;;;;;;9.30;5.20;;;3.30;99.90;;;;;;4907457;29;20060;-77
2024/01/27 09:36:32;;;;;;;10.48;5.20;;;3.40;99.90;;;;;;4924330;29;20108;-76
2024/01/27 09:38:59;;;;;;;10.93;5.45;;;3.50;99.90;;;;;;4908599;29;20064;-74
2024/01/27 09:41:30;;;;;;;11.40;5.68;;;3.50;99.90;;;;;;4908372;29;20108;-73
2024/01/27 09:44:03;;;;;;;10.80;5.60;;;3.60;99.90;;;;;;4903081;29;20029;-74
2024/01/27 09:46:30;;;;;;;10.50;5.60;;;3.70;99.90;;;;;;4904926;29;20037;-73
2024/01/27 09:48:56;;;;;;;9.80;5.28;;;3.80;99.90;;;;;;4903187;29;20063;-78
2024/01/27 09:51:22;;;;;;;11.18;5.13;;;3.90;99.90;;;;;;4909122;29;20024;-73
2024/01/27 09:53:52;;;;;;;10.13;5.75;;;4.00;99.90;;;;;;4908233;29;20043;-74
2024/01/27 09:56:18;;;;;;;8.95;5.13;;;4.00;99.90;;;;;;4909792;29;20051;-72
2024/01/27 09:58:49;;;;;;;10.48;5.07;;;4.10;99.90;;;;;;4908691;29;20277;-78
2024/01/27 10:01:20;;;;;;;12.43;5.53;;;4.20;99.90;;;;;;4909423;29;20036;-74
2024/01/27 10:03:47;;;;;;;12.27;5.47;;;4.30;99.90;;;;;;4906831;29;20037;-74
2024/01/27 10:06:14;;;;;;;11.02;4.80;;;4.40;99.90;;;;;;4909448;29;20341;-74
2024/01/27 10:08:40;;;;;;;8.35;4.72;;;4.40;99.90;;;;;;4908908;29;20032;-74
2024/01/27 10:11:29;;;;;;;9.10;4.70;;;4.60;99.90;;;;;;4909271;29;20042;-80
2024/01/27 10:14:08;;;;;;;9.90;4.95;;;4.60;99.90;;;;;;4908585;29;20036;-79
2024/01/27 10:16:44;;;;;;;8.57;4.82;;;4.80;99.90;;;;;;4899096;29;20044;-73
2024/01/27 10:19:20;;;;;;;11.18;5.05;;;4.80;99.90;;;;;;4907973;29;20322;-72
2024/01/27 10:21:47;;;;;;;9.57;4.82;;;5.00;99.90;;;;;;4915743;29;20391;-72
2024/01/27 10:24:12;;;;;;;9.38;4.70;;;5.00;99.90;;;;;;4927115;29;20329;-75
2024/01/27 10:26:38;;;;;;;9.73;4.93;;;5.10;99.90;;;;;;4926496;29;20036;-79
2024/01/27 10:29:04;;;;;;;10.50;4.88;;;5.10;99.90;;;;;;4926988;29;20238;-76
2024/01/27 10:31:36;;;;;;;9.93;4.82;;;5.20;99.90;;;;;;4925982;29;20238;-76
2024/01/27 10:34:04;;;;;;;9.68;4.47;;;5.30;99.90;;;;;;4909573;29;20047;-75
2024/01/27 10:36:40;;;;;;;8.55;4.90;;;5.40;99.90;;;;;;4927270;29;20038;-75
2024/01/27 10:39:20;;;;;;;10.35;4.68;;;5.40;99.90;;;;;;4926669;29;20046;-77
2024/01/27 10:41:48;;;;;;;14.40;4.88;;;5.60;99.90;;;;;;4927326;29;20047;-76
2024/01/27 10:44:15;;;;;;;12.27;3.95;;;5.70;99.90;;;;;;4942584;29;20032;-75
2024/01/27 10:46:47;;;;;;;9.35;5.22;;;5.80;99.90;;;;;;4926298;29;20035;-75
2024/01/27 10:49:15;;;;;;;6.90;4.35;;;5.90;99.90;;;;;;4909027;29;20119;-75
2024/01/27 10:51:46;;;;;;;15.75;4.20;;;6.10;99.90;;;;;;4923782;29;20031;-75
2024/01/27 10:54:23;;;;;;;7.55;3.53;;;6.30;99.90;;;;;;4926538;29;20155;-76
2024/01/27 10:56:50;;;;;;;10.93;3.45;;;6.40;99.90;;;;;;4926224;29;20296;-74
2024/01/27 10:59:18;;;;;;;12.57;4.03;;;6.50;99.90;;;;;;4910368;29;20051;-74
2024/01/27 11:01:44;;;;;;;9.70;3.63;;;6.70;99.80;;;;;;4910824;29;20020;-75
2024/01/27 11:04:13;;;;;;;10.65;3.55;;;6.90;99.50;;;;;;4926308;29;20051;-75
2024/01/27 11:06:41;;;;;;;9.55;3.22;;;7.20;99.00;;;;;;4926808;29;20187;-76
2024/01/27 11:09:08;;;;;;;8.77;3.78;;;7.30;97.30;;;;;;4927048;29;20189;-74
2024/01/27 11:11:35;;;;;;;9.75;3.40;;;7.70;97.30;;;;;;4906825;29;20057;-75
2024/01/27 11:14:01;;;;;;;7.65;3.53;;;8.00;96.50;;;;;;4914546;29;20024;-73
2024/01/27 11:16:28;;;;;;;8.90;3.30;;;8.20;95.80;;;;;;4927161;29;20114;-76
2024/01/27 11:18:54;;;;;;;7.13;3.33;;;8.60;95.10;;;;;;4922266;29;20048;-76
2024/01/27 11:21:20;;;;;;;8.18;3.25;;;8.70;94.40;;;;;;4908342;29;20268;-76
2024/01/27 11:23:47;;;;;;;10.30;3.35;;;9.10;94.20;;;;;;4907639;29;20024;-74
2024/01/27 11:26:22;;;;;;;9.15;3.53;;;9.40;92.90;;;;;;4927523;29;20036;-75
2024/01/27 11:28:49;;;;;;;5.88;2.70;;;9.90;92.90;;;;;;4925645;29;20095;-77
2024/01/27 11:31:18;;;;;;;6.93;2.75;;;10.40;91.40;;;;;;4927152;29;20032;-74
2024/01/27 11:33:45;;;;;;;8.30;3.05;;;11.10;90.50;;;;;;4924210;29;20051;-76
2024/01/27 11:36:22;;;;;;;8.07;3.15;;;11.30;88.20;;;;;;4927445;29;20302;-77
2024/01/27 11:38:50;;;;;;;7.78;2.92;;;11.00;87.80;;;;;;4934955;29;20051;-74
2024/01/27 11:42:07;;;;;;;7.70;2.55;;;11.30;87.40;;;;;;4926908;29;20032;-77
2024/01/27 11:44:37;;;;;;;6.55;2.47;;;12.20;86.00;;;;;;4906340;29;20267;-78
2024/01/27 11:47:09;;;;;;;10.18;3.20;;;12.80;81.50;;;;;;4908684;29;20334;-80
2024/01/27 11:49:43;;;;;;;6.68;2.38;;;13.00;81.00;;;;;;4909553;29;20059;-77
2024/01/27 11:52:08;;;;;;;5.88;2.60;;;13.50;79.70;;;;;;4927820;29;20103;-78
2024/01/27 11:55:08;;;;;;;9.35;2.95;;;13.70;77.60;;;;;;4906727;29;20039;-82
2024/01/27 12:00:22;;;;;;;10.60;3.03;;;13.50;76.80;;;;;;4887420;29;20060;-82
2024/01/27 12:02:51;;;;;;;7.75;2.60;;;13.30;77.30;;;;;;4867898;29;20137;-83
2024/01/27 12:05:17;;;;;;;8.38;2.70;;;13.80;76.20;;;;;;4868710;29;20045;-79
2024/01/27 12:08:01;;;;;;;6.88;2.50;;;14.20;74.80;;;;;;4883696;29;20022;-76
2024/01/27 12:10:27;;;;;;;8.32;3.08;;;14.70;73.90;;;;;;4868005;29;20129;-78
2024/01/27 12:16:09;;;;;;;8.13;2.47;;;15.80;71.20;;;;;;4885344;29;20131;-77
2024/01/27 12:19:09;;;;;;;8.07;2.20;;;17.20;68.00;;;;;;4886630;29;20097;-81
2024/01/27 12:21:35;;;;;;;7.35;2.20;;;17.40;67.00;;;;;;4871411;29;20029;-80
2024/01/27 12:24:26;;;;;;;6.93;2.40;;;17.70;65.60;;;;;;4872115;29;20092;-82
2024/01/27 12:26:52;;;;;;;7.60;2.63;;;18.10;65.10;;;;;;4886088;29;20096;-80
2024/01/27 12:29:20;;;;;;;7.40;2.58;;;17.90;64.40;;;;;;4886694;29;20044;-79
2024/01/27 12:31:58;;;;;;;7.18;2.28;;;18.30;64.30;;;;;;4873419;29;20345;-82
2024/01/27 12:34:24;;;;;;;6.05;2.40;;;19.00;62.70;;;;;;4869001;29;20040;-77
2024/01/27 12:36:51;;;;;;;6.75;2.40;;;19.40;61.80;;;;;;4875680;29;20028;-79
2024/01/27 12:39:17;;;;;;;6.95;2.65;;;19.40;60.40;;;;;;4899263;29;20032;-78
2024/01/27 12:42:16;;;;;;;;;;;;;;;;;;;;;
2024/01/27 12:44:44;;;;;;;6.85;2.55;;;18.80;61.40;;;;;;4921645;29;20040;-81
2024/01/27 12:47:10;;;;;;;7.55;2.60;;;19.20;60.00;;;;;;4925000;29;20032;-80
2024/01/27 12:49:36;;;;;;;6.18;2.28;;;19.20;59.80;;;;;;4925285;29;20199;-80
2024/01/27 12:52:02;;;;;;;7.15;2.13;;;19.10;59.60;;;;;;4917107;29;20047;-77
2024/01/27 12:54:31;;;;;;;5.07;2.22;;;18.70;61.40;;;;;;4907894;29;20378;-80
2024/01/27 12:57:05;;;;;;;5.90;1.98;;;18.70;60.40;;;;;;4925019;29;20032;-80
2024/01/27 12:59:31;;;;;;;5.50;1.95;;;18.70;60.30;;;;;;4908686;29;20043;-79